createdAt,value
2023-03-07T00:01:34.566Z,86.11
2023-03-07T00:06:39.153Z,86.06
2023-03-07T00:11:42.337Z,86.12
2023-03-07T00:16:45.523Z,85.32
2023-03-07T00:21:50.081Z,84.38
2023-03-07T00:26:53.256Z,84.48
2023-03-07T00:31:56.420Z,84.04
2023-03-07T00:37:01.063Z,83.89
2023-03-07T00:42:04.479Z,83.66
2023-03-07T00:47:08.111Z,84.01
2023-03-07T00:52:12.630Z,84.58
2023-03-07T00:57:15.772Z,84.76
2023-03-07T01:02:18.964Z,85.00
2023-03-07T01:07:23.566Z,84.90
2023-03-07T01:12:26.700Z,85.23
2023-03-07T01:17:29.817Z,85.33
2023-03-07T01:22:34.465Z,86.01
2023-03-07T01:27:37.793Z,85.90
2023-03-07T01:32:41.117Z,84.02
2023-03-07T01:37:45.713Z,83.73
2023-03-07T01:42:48.945Z,84.36
2023-03-07T01:47:52.255Z,82.72
2023-03-07T01:53:01.616Z,82.06
2023-03-07T01:58:07.535Z,81.17
2023-03-07T02:03:19.516Z,80.63
2023-03-07T02:08:28.844Z,80.84
2023-03-07T02:13:32.120Z,80.49
2023-03-07T02:18:40.021Z,80.27
2023-03-07T02:23:54.495Z,79.92
2023-03-07T02:29:00.507Z,79.07
2023-03-07T02:34:03.749Z,80.05
2023-03-07T02:39:07.786Z,79.95
2023-03-07T02:44:12.768Z,79.92
2023-03-07T02:49:15.947Z,80.26
2023-03-07T02:54:19.113Z,79.57
2023-03-07T02:59:23.724Z,79.85
2023-03-07T03:04:26.902Z,80.12
2023-03-07T03:09:30.064Z,79.97
2023-03-07T03:14:34.839Z,80.04
2023-03-07T03:19:38.123Z,79.87
2023-03-07T03:24:42.165Z,79.64
2023-03-07T03:29:46.948Z,79.79
2023-03-07T03:34:50.131Z,79.90
2023-03-07T03:39:54.603Z,79.03
2023-03-07T03:44:59.162Z,79.23
2023-03-07T03:50:02.270Z,79.20
2023-03-07T03:55:05.848Z,79.13
2023-03-07T04:00:14.950Z,79.97
2023-03-07T04:05:18.393Z,79.76
2023-03-07T04:10:21.536Z,79.78
2023-03-07T04:15:26.152Z,79.79
2023-03-07T04:20:29.314Z,80.35
2023-03-07T04:25:33.519Z,79.86
2023-03-07T04:30:38.077Z,79.83
2023-03-07T04:35:41.397Z,79.83
2023-03-07T04:40:44.635Z,79.54
2023-03-07T04:45:49.252Z,79.61
2023-03-07T04:50:53.416Z,79.33
2023-03-07T04:56:00.252Z,79.84
2023-03-07T05:01:06.192Z,79.71
2023-03-07T05:06:12.390Z,79.07
2023-03-07T05:11:15.590Z,79.21
2023-03-07T05:16:20.182Z,79.71
2023-03-07T05:21:23.322Z,79.11
2023-03-07T05:26:26.496Z,79.54
2023-03-07T05:31:31.097Z,79.01
2023-03-07T05:36:34.252Z,79.51
2023-03-07T05:41:37.397Z,79.52
2023-03-07T05:46:41.908Z,80.02
2023-03-07T05:51:45.073Z,80.28
2023-03-07T05:56:48.187Z,80.20
2023-03-07T06:01:52.728Z,80.64
2023-03-07T06:06:55.999Z,80.74
2023-03-07T06:11:59.142Z,81.18
2023-03-07T06:17:04.528Z,80.18
2023-03-07T06:22:08.955Z,80.81
2023-03-07T06:27:12.165Z,81.58
2023-03-07T06:32:16.816Z,81.45
2023-03-07T06:37:20.223Z,80.83
2023-03-07T06:42:23.436Z,81.26
2023-03-07T06:47:28.037Z,81.52
2023-03-07T06:52:31.176Z,81.27
2023-03-07T06:57:34.685Z,81.79
2023-03-07T07:02:39.406Z,81.70
2023-03-07T07:07:42.597Z,82.33
2023-03-07T07:12:45.703Z,82.25
2023-03-07T07:17:51.498Z,83.22
2023-03-07T07:22:54.649Z,83.47
2023-03-07T07:27:57.781Z,82.86
2023-03-07T07:33:02.400Z,83.90
2023-03-07T07:38:05.547Z,83.82
2023-03-07T07:43:08.725Z,83.70
2023-03-07T07:48:13.263Z,84.28
2023-03-07T07:53:17.967Z,83.80
2023-03-07T07:58:21.172Z,83.57
2023-03-07T08:03:25.998Z,83.83
2023-03-07T08:08:29.391Z,83.66
2023-03-07T08:13:32.881Z,84.32
2023-03-07T08:18:37.622Z,84.37
2023-03-07T08:23:40.877Z,84.48
2023-03-07T08:28:44.240Z,84.56
2023-03-07T08:33:49.478Z,84.15
2023-03-07T08:38:53.449Z,84.26
2023-03-07T08:43:56.683Z,83.61
2023-03-07T08:49:01.316Z,83.50
2023-03-07T08:54:04.571Z,83.79
2023-03-07T08:59:07.923Z,84.25
2023-03-07T09:04:12.681Z,81.65
2023-03-07T09:09:15.968Z,77.62
2023-03-07T09:14:19.283Z,76.11
2023-03-07T09:19:27.746Z,76.14
2023-03-07T09:24:31.802Z,75.71
2023-03-07T09:29:35.104Z,73.13
2023-03-07T09:34:39.869Z,73.40
2023-03-07T09:39:43.184Z,72.48
2023-03-07T09:45:02.413Z,73.86
2023-03-07T09:50:15.123Z,74.44
2023-03-07T09:55:20.950Z,75.63
2023-03-07T10:00:28.339Z,74.18
2023-03-07T10:05:36.937Z,68.78
2023-03-07T10:10:44.474Z,68.12
2023-03-07T10:15:49.788Z,68.23
2023-03-07T10:21:02.193Z,68.24
2023-03-07T10:26:11.379Z,66.29
2023-03-07T10:31:23.969Z,64.32
2023-03-07T10:36:39.241Z,63.09
2023-03-07T10:41:42.472Z,65.39
2023-03-07T10:46:55.305Z,65.03
2023-03-07T10:52:04.498Z,65.15
2023-03-07T10:57:10.404Z,66.31
2023-03-07T11:02:32.911Z,68.09
2023-03-07T11:07:38.297Z,67.70
2023-03-07T11:12:47.301Z,68.17
2023-03-07T11:17:51.434Z,68.58
2023-03-07T11:23:19.675Z,69.38
2023-03-07T11:28:28.837Z,71.74
2023-03-07T11:33:58.643Z,76.07
2023-03-07T11:39:11.389Z,77.13
2023-03-07T11:44:24.387Z,76.13
2023-03-07T11:49:45.025Z,75.00
2023-03-07T11:55:02.445Z,74.37
2023-03-07T12:00:24.712Z,72.02
2023-03-07T12:05:39.580Z,65.30
2023-03-07T12:10:59.005Z,65.90
2023-03-07T12:16:11.571Z,65.97
2023-03-07T12:21:26.169Z,66.23
2023-03-07T12:26:43.805Z,66.30
2023-03-07T12:31:49.817Z,66.48
2023-03-07T12:36:57.268Z,66.96
2023-03-07T12:42:06.946Z,66.97
2023-03-07T12:47:19.435Z,68.66
2023-03-07T12:52:31.592Z,69.75
2023-03-07T12:57:41.484Z,70.72
2023-03-07T13:02:50.982Z,71.42
2023-03-07T13:07:55.503Z,71.59
2023-03-07T13:13:00.211Z,72.22
2023-03-07T13:18:03.812Z,70.90
2023-03-07T13:23:28.978Z,68.58
2023-03-07T13:28:41.021Z,68.83
2023-03-07T13:33:44.958Z,68.15
2023-03-07T13:38:48.235Z,68.61
2023-03-07T13:44:03.869Z,69.15
2023-03-07T13:49:08.652Z,68.77
2023-03-07T13:54:13.009Z,68.90
2023-03-07T13:59:27.885Z,68.71
2023-03-07T14:04:40.216Z,69.49
2023-03-07T14:09:48.182Z,68.71
2023-03-07T14:15:11.253Z,68.36
2023-03-07T14:20:21.959Z,64.01
2023-03-07T14:25:27.537Z,64.10
2023-03-07T14:30:34.504Z,64.55
2023-03-07T14:35:40.417Z,64.88
2023-03-07T14:40:56.210Z,64.68
2023-03-07T14:46:08.330Z,65.42
2023-03-07T14:51:17.098Z,65.12
2023-03-07T14:56:23.922Z,64.54
2023-03-07T15:01:35.238Z,63.88
2023-03-07T15:06:45.085Z,62.58
2023-03-07T15:11:53.372Z,63.93
2023-03-07T15:17:03.244Z,64.22
2023-03-07T15:22:13.777Z,64.01
2023-03-07T15:27:23.199Z,64.19
2023-03-07T15:32:36.084Z,64.23
2023-03-07T15:37:53.324Z,64.34
2023-03-07T15:42:58.125Z,63.80
2023-03-07T15:48:03.471Z,62.87
2023-03-07T15:53:10.772Z,62.57
2023-03-07T15:58:15.702Z,61.54
2023-03-07T16:03:26.773Z,61.70
2023-03-07T16:08:30.050Z,61.70
2023-03-07T16:13:37.276Z,62.02
2023-03-07T16:18:43.534Z,62.00
2023-03-07T16:23:47.397Z,61.93
2023-03-07T16:28:50.837Z,60.82
2023-03-07T16:33:56.159Z,61.65
2023-03-07T16:38:59.284Z,61.82
2023-03-07T16:44:02.826Z,61.57
2023-03-07T16:49:07.516Z,61.77
2023-03-07T16:54:10.424Z,62.42
2023-03-07T16:59:15.834Z,62.21
2023-03-07T17:04:20.495Z,62.46
2023-03-07T17:09:23.728Z,62.51
2023-03-07T17:14:27.182Z,62.88
2023-03-07T17:19:33.786Z,63.56
2023-03-07T17:24:37.107Z,63.78
2023-03-07T17:29:43.321Z,62.53
2023-03-07T17:34:48.186Z,64.42
2023-03-07T17:39:51.468Z,63.80
2023-03-07T17:44:54.752Z,61.87
2023-03-07T17:50:00.030Z,59.80
2023-03-07T17:55:03.631Z,58.97
2023-03-07T18:00:12.385Z,58.83
2023-03-07T18:05:17.967Z,58.41
2023-03-07T18:10:22.758Z,58.90
2023-03-07T18:15:27.989Z,58.29
2023-03-07T18:20:33.101Z,58.87
2023-03-07T18:25:36.368Z,60.83
2023-03-07T18:30:39.649Z,61.47
2023-03-07T18:35:44.388Z,61.80
2023-03-07T18:40:48.135Z,61.76
2023-03-07T18:45:51.996Z,63.30
2023-03-07T18:51:00.721Z,61.27
2023-03-07T18:56:05.035Z,61.75
2023-03-07T19:01:13.400Z,62.28
2023-03-07T19:06:19.336Z,62.45
2023-03-07T19:11:22.804Z,63.80
2023-03-07T19:16:28.317Z,64.46
2023-03-07T19:21:33.430Z,64.93
2023-03-07T19:26:36.619Z,66.85
2023-03-07T19:31:41.093Z,65.88
2023-03-07T19:36:46.616Z,65.43
2023-03-07T19:41:49.881Z,67.34
2023-03-07T19:46:53.117Z,67.94
2023-03-07T19:51:57.819Z,67.47
2023-03-07T19:57:01.158Z,68.08
2023-03-07T20:02:04.414Z,69.07
2023-03-07T20:07:09.119Z,69.84
2023-03-07T20:12:12.522Z,70.21
2023-03-07T20:17:15.804Z,70.25
2023-03-07T20:22:20.921Z,70.59
2023-03-07T20:27:25.210Z,69.63
2023-03-07T20:32:28.612Z,70.45
2023-03-07T20:37:35.281Z,71.40
2023-03-07T20:42:38.498Z,71.37
2023-03-07T20:47:41.821Z,71.29
2023-03-07T20:52:46.517Z,71.32
2023-03-07T20:57:49.761Z,70.86
2023-03-07T21:03:05.227Z,71.46
2023-03-07T21:08:10.339Z,72.15
2023-03-07T21:13:13.778Z,73.49
2023-03-07T21:18:16.953Z,72.55
2023-03-07T21:23:21.594Z,73.55
2023-03-07T21:28:24.904Z,73.64
2023-03-07T21:33:28.254Z,74.34
2023-03-07T21:38:34.080Z,74.11
2023-03-07T21:43:37.437Z,74.24
2023-03-07T21:48:41.383Z,73.73
2023-03-07T21:53:46.094Z,73.74
2023-03-07T21:58:50.737Z,74.00
2023-03-07T22:03:55.265Z,74.15
2023-03-07T22:09:01.407Z,74.21
2023-03-07T22:14:04.933Z,75.15
2023-03-07T22:19:08.159Z,75.20
2023-03-07T22:24:13.494Z,75.65
2023-03-07T22:29:16.697Z,75.46
2023-03-07T22:34:19.931Z,75.87
2023-03-07T22:39:24.913Z,75.98
2023-03-07T22:44:27.941Z,76.98
2023-03-07T22:49:31.223Z,75.80
2023-03-07T22:54:39.391Z,76.04
2023-03-07T22:59:42.568Z,76.15
2023-03-07T23:04:46.279Z,76.70
2023-03-07T23:09:50.925Z,76.40
2023-03-07T23:14:54.341Z,76.04
2023-03-07T23:19:57.825Z,76.54
2023-03-07T23:25:02.561Z,76.79
2023-03-07T23:30:06.912Z,76.68
2023-03-07T23:35:11.743Z,76.49
2023-03-07T23:40:16.674Z,76.82
2023-03-07T23:45:22.003Z,77.61
2023-03-07T23:50:26.102Z,77.57
2023-03-07T23:55:30.741Z,77.22
